Time;durP1;ratioP1;P1;durP2;ratioP2;P2;SDS_P1;SDS_P2;PMS_P1;PMS_P2;Temp;Humidity;BMP_temperature;BMP_pressure;BME280_temperature;BME280_humidity;BME280_pressure;Samples;Min_cycle;Max_cycle;Signal;HPM_P1;HPM_P2
2022/03/23 00:25:37;;;;;;;11.20;4.65;;;0.40;99.90;;;;;;5059795;28;20184;-70
2022/03/23 00:28:04;;;;;;;7.53;4.57;;;0.30;99.90;;;;;;5057809;28;20300;-70
2022/03/23 00:30:32;;;;;;;10.75;5.03;;;0.30;99.90;;;;;;5058416;28;20160;-71
2022/03/23 00:33:00;;;;;;;7.05;3.75;;;0.20;99.90;;;;;;5041832;28;20264;-70
2022/03/23 00:35:26;;;;;;;11.23;5.15;;;0.10;99.90;;;;;;5058275;28;20181;-70
2022/03/23 00:37:52;;;;;;;7.97;4.13;;;0.00;99.90;;;;;;5058070;28;20200;-70
2022/03/23 00:40:18;;;;;;;11.52;4.82;;;0.00;99.90;;;;;;5059480;28;20161;-70
2022/03/23 00:42:44;;;;;;;9.52;4.60;;;-0.10;99.90;;;;;;5057659;28;20197;-70
2022/03/23 00:45:11;;;;;;;6.10;3.90;;;-0.10;99.90;;;;;;5058268;28;20602;-70
2022/03/23 00:47:38;;;;;;;9.63;4.68;;;-0.10;99.90;;;;;;5059645;28;20181;-70
2022/03/23 00:50:05;;;;;;;8.82;4.40;;;-0.10;99.90;;;;;;5041379;28;20183;-70
2022/03/23 00:52:31;;;;;;;11.75;4.68;;;-0.10;99.90;;;;;;5031435;28;20219;-70
2022/03/23 00:54:57;;;;;;;10.30;4.93;;;-0.10;99.90;;;;;;5031497;28;20233;-70
2022/03/23 00:57:23;;;;;;;9.00;5.22;;;-0.20;99.90;;;;;;5031435;28;20176;-70
2022/03/23 00:59:49;;;;;;;9.73;4.82;;;-0.10;99.90;;;;;;5051673;28;20215;-69
2022/03/23 01:02:15;;;;;;;6.03;4.30;;;-0.10;99.90;;;;;;5069132;28;20161;-69
2022/03/23 01:04:42;;;;;;;7.78;4.15;;;-0.10;99.90;;;;;;5069208;28;20167;-70
2022/03/23 01:07:08;;;;;;;12.50;5.57;;;-0.10;99.90;;;;;;5069016;28;20156;-69
2022/03/23 01:09:34;;;;;;;7.82;4.25;;;-0.10;99.90;;;;;;5068990;28;20212;-69
2022/03/23 01:11:59;;;;;;;9.73;4.82;;;-0.20;99.90;;;;;;5069145;28;20243;-69
2022/03/23 01:14:26;;;;;;;8.05;4.15;;;-0.30;99.90;;;;;;5069027;28;20190;-69
2022/03/23 01:16:53;;;;;;;7.53;4.75;;;-0.40;99.90;;;;;;5068846;28;20688;-69
2022/03/23 01:19:22;;;;;;;8.10;4.85;;;-0.40;99.90;;;;;;5068884;28;20264;-70
2022/03/23 01:21:48;;;;;;;7.07;4.05;;;-0.50;99.90;;;;;;5068995;28;20540;-70
2022/03/23 01:24:15;;;;;;;6.18;3.78;;;-0.50;99.90;;;;;;5068896;28;20564;-70
2022/03/23 01:26:41;;;;;;;9.10;3.95;;;-0.60;99.90;;;;;;5068750;28;20169;-70
2022/03/23 01:29:08;;;;;;;6.25;4.22;;;-0.60;99.90;;;;;;5068901;28;20374;-70
2022/03/23 01:31:34;;;;;;;8.88;4.43;;;-0.70;99.90;;;;;;5068817;28;20161;-70
2022/03/23 01:34:00;;;;;;;10.75;4.07;;;-0.70;99.90;;;;;;5069465;28;20164;-70
2022/03/23 01:36:27;;;;;;;12.45;4.28;;;-0.60;99.90;;;;;;5072604;28;20168;-69
2022/03/23 01:38:53;;;;;;;6.35;4.22;;;-0.60;99.90;;;;;;5070829;28;20187;-70
2022/03/23 01:41:20;;;;;;;7.97;3.58;;;-0.70;99.90;;;;;;5072323;28;20161;-70
2022/03/23 01:43:46;;;;;;;13.25;4.90;;;-0.80;99.90;;;;;;5072664;28;20184;-69
2022/03/23 01:46:17;;;;;;;10.82;4.13;;;-0.80;99.90;;;;;;5054726;28;20259;-70
2022/03/23 01:48:44;;;;;;;6.75;3.75;;;-0.70;99.90;;;;;;5072712;28;20232;-70
2022/03/23 01:51:11;;;;;;;6.55;3.97;;;-0.80;99.90;;;;;;5072740;28;20186;-70
2022/03/23 01:53:37;;;;;;;8.63;4.35;;;-0.80;99.90;;;;;;5053320;28;20208;-69
2022/03/23 01:56:04;;;;;;;9.77;3.70;;;-0.80;99.90;;;;;;5071683;28;20156;-70
2022/03/23 01:58:30;;;;;;;5.82;3.55;;;-0.90;99.90;;;;;;5072358;28;20221;-70
2022/03/23 02:00:55;;;;;;;5.38;3.47;;;-0.80;99.90;;;;;;5072504;28;20225;-70
2022/03/23 02:03:22;;;;;;;7.97;4.28;;;-0.70;99.90;;;;;;5072407;28;20208;-70
2022/03/23 02:05:48;;;;;;;6.93;3.78;;;-0.70;99.90;;;;;;5071208;28;20204;-70
2022/03/23 02:08:15;;;;;;;8.52;3.78;;;-0.80;99.90;;;;;;5072358;28;20195;-70
2022/03/23 02:10:41;;;;;;;6.10;3.38;;;-0.80;99.90;;;;;;5072378;28;20156;-70
2022/03/23 02:13:09;;;;;;;9.82;4.13;;;-0.90;99.90;;;;;;5072270;28;20153;-71
2022/03/23 02:15:35;;;;;;;7.85;3.58;;;-0.80;99.90;;;;;;5072108;28;20199;-70
2022/03/23 02:18:02;;;;;;;7.78;3.50;;;-0.70;99.90;;;;;;5072304;28;20169;-70
2022/03/23 02:20:28;;;;;;;7.68;3.75;;;-0.50;99.90;;;;;;5072098;28;20180;-70
2022/03/23 02:22:54;;;;;;;6.50;3.38;;;-0.40;99.90;;;;;;5072013;28;20242;-70
2022/03/23 02:25:27;;;;;;;7.65;4.70;;;-0.40;99.90;;;;;;5071924;28;20225;-70
2022/03/23 02:27:55;;;;;;;6.32;4.05;;;-0.40;99.90;;;;;;5070654;28;20248;-70
2022/03/23 02:30:21;;;;;;;4.50;3.03;;;-0.40;99.90;;;;;;5071960;28;20224;-70
2022/03/23 02:32:48;;;;;;;7.85;3.80;;;-0.40;99.90;;;;;;5071936;28;20184;-70
2022/03/23 02:35:15;;;;;;;10.82;4.65;;;-0.20;99.90;;;;;;5071792;28;20187;-70
2022/03/23 02:37:42;;;;;;;12.43;5.03;;;-0.20;99.90;;;;;;5071954;28;20580;-70
2022/03/23 02:40:10;;;;;;;8.10;4.78;;;-0.30;99.90;;;;;;5071795;28;20181;-70
2022/03/23 02:42:37;;;;;;;9.90;4.30;;;-0.10;99.90;;;;;;5071682;28;20193;-70
2022/03/23 02:45:10;;;;;;;7.63;4.78;;;0.10;99.90;;;;;;5071084;28;20166;-70
2022/03/23 02:47:36;;;;;;;8.32;3.80;;;0.00;99.90;;;;;;5071070;28;20661;-70
2022/03/23 02:50:03;;;;;;;9.95;4.68;;;0.00;99.90;;;;;;5071509;28;20183;-70
2022/03/23 02:52:31;;;;;;;12.68;4.72;;;-0.10;99.90;;;;;;5071623;28;20217;-70
2022/03/23 03:03:41;;;;;;;5.18;3.83;;;-0.60;99.90;;;;;;5071362;28;20635;-70
2022/03/23 03:06:07;;;;;;;13.13;4.68;;;-0.70;99.90;;;;;;5071214;28;20192;-70
2022/03/23 03:08:45;;;;;;;6.47;4.00;;;-0.80;99.90;;;;;;5071307;28;20165;-70
2022/03/23 03:11:12;;;;;;;9.52;3.80;;;-0.90;99.90;;;;;;5071288;28;20159;-70
2022/03/23 03:13:40;;;;;;;9.73;5.43;;;-1.00;99.90;;;;;;5071235;28;20223;-70
2022/03/23 03:16:06;;;;;;;7.18;3.80;;;-1.20;99.90;;;;;;5071093;28;20680;-70
2022/03/23 03:18:34;;;;;;;8.32;4.00;;;-1.30;99.90;;;;;;5071098;28;20160;-70
2022/03/23 03:21:06;;;;;;;8.23;4.18;;;-1.30;99.90;;;;;;5071175;28;20168;-70
2022/03/23 03:23:33;;;;;;;8.93;3.90;;;-1.40;99.90;;;;;;5070983;28;20645;-70
2022/03/23 03:26:01;;;;;;;6.18;3.70;;;-1.40;99.90;;;;;;5070813;28;20257;-70
2022/03/23 03:28:28;;;;;;;5.82;4.32;;;-1.40;99.90;;;;;;5070914;28;20519;-70
2022/03/23 03:30:54;;;;;;;7.95;4.28;;;-1.50;99.90;;;;;;5070815;28;20169;-70
2022/03/23 03:33:20;;;;;;;7.72;3.75;;;-1.60;99.90;;;;;;5070739;28;20160;-70
2022/03/23 03:35:46;;;;;;;8.90;3.78;;;-1.60;99.90;;;;;;5070522;28;20292;-70
2022/03/23 03:38:12;;;;;;;8.80;4.13;;;-1.60;99.90;;;;;;5070518;28;20164;-70
2022/03/23 03:40:38;;;;;;;6.68;3.72;;;-1.60;99.90;;;;;;5070514;28;20160;-70
2022/03/23 03:43:03;;;;;;;7.38;3.20;;;-1.60;99.90;;;;;;5070368;28;20203;-70
2022/03/23 03:45:29;;;;;;;9.73;3.97;;;-1.60;99.90;;;;;;5052355;28;20169;-70
2022/03/23 03:47:55;;;;;;;13.18;5.78;;;-1.60;99.90;;;;;;5070458;28;20179;-70
2022/03/23 03:50:21;;;;;;;11.45;4.50;;;-1.60;99.90;;;;;;5070273;28;20184;-70
2022/03/23 03:52:47;;;;;;;15.30;3.95;;;-1.60;99.90;;;;;;5070257;28;20165;-70
2022/03/23 03:55:13;;;;;;;10.75;4.85;;;-1.40;99.90;;;;;;5070135;28;20190;-70
2022/03/23 03:57:39;;;;;;;6.22;4.05;;;-1.50;99.90;;;;;;5069607;28;21323;-70
2022/03/23 04:00:06;;;;;;;9.43;4.80;;;-1.50;99.90;;;;;;5070043;28;20169;-70
2022/03/23 04:02:31;;;;;;;9.73;4.13;;;-1.50;99.90;;;;;;5069887;28;20201;-70
2022/03/23 04:04:57;;;;;;;11.70;4.90;;;-1.60;99.90;;;;;;5069879;28;20168;-70
2022/03/23 04:07:23;;;;;;;8.05;4.35;;;-1.70;99.90;;;;;;5051740;28;20188;-70
2022/03/23 04:09:49;;;;;;;7.25;3.85;;;-1.70;99.90;;;;;;5069856;28;20161;-70
2022/03/23 04:12:15;;;;;;;7.93;4.30;;;-1.80;99.90;;;;;;5069672;28;20172;-70
2022/03/23 04:14:41;;;;;;;7.53;4.72;;;-1.80;99.90;;;;;;5069686;28;20180;-70
2022/03/23 04:17:07;;;;;;;12.93;4.90;;;-1.80;99.90;;;;;;5069564;28;20196;-70
2022/03/23 04:19:33;;;;;;;8.52;4.45;;;-1.80;99.90;;;;;;5069699;28;20156;-70
2022/03/23 04:21:59;;;;;;;16.30;5.32;;;-1.80;99.90;;;;;;5069773;28;20163;-70
2022/03/23 04:24:24;;;;;;;8.07;4.85;;;-1.90;99.90;;;;;;5069572;28;20263;-70
2022/03/23 04:26:50;;;;;;;11.93;6.35;;;-1.90;99.90;;;;;;5069552;28;20189;-70
2022/03/23 04:29:16;;;;;;;10.77;4.82;;;-2.00;99.90;;;;;;5069490;28;20161;-70
2022/03/23 04:31:42;;;;;;;8.77;4.93;;;-2.00;99.90;;;;;;5069596;28;20189;-70
2022/03/23 04:34:09;;;;;;;26.38;5.90;;;-1.90;99.90;;;;;;5069380;28;20223;-70
2022/03/23 04:36:35;;;;;;;14.85;5.75;;;-1.70;99.90;;;;;;5069360;28;20208;-70
2022/03/23 04:39:01;;;;;;;12.77;5.43;;;-1.70;99.90;;;;;;5069444;28;20187;-70
2022/03/23 04:41:27;;;;;;;10.75;4.95;;;-1.60;99.90;;;;;;5069125;28;20156;-70
2022/03/23 04:43:53;;;;;;;7.63;4.93;;;-1.60;99.90;;;;;;5068709;28;20234;-70
2022/03/23 04:46:19;;;;;;;17.02;5.80;;;-1.60;99.90;;;;;;5069777;28;20189;-70
2022/03/23 04:48:45;;;;;;;11.68;5.75;;;-1.70;99.90;;;;;;5069541;28;20160;-70
2022/03/23 04:51:13;;;;;;;13.77;6.90;;;-1.80;99.90;;;;;;5069105;28;20209;-70
2022/03/23 04:53:38;;;;;;;13.43;5.00;;;-1.80;99.90;;;;;;5068914;28;20196;-70
2022/03/23 04:56:04;;;;;;;9.40;4.80;;;-1.80;99.90;;;;;;5069018;28;20192;-70
2022/03/23 04:58:30;;;;;;;8.90;5.07;;;-1.70;99.90;;;;;;5068609;28;20216;-71
2022/03/23 05:00:56;;;;;;;8.48;4.65;;;-1.60;99.90;;;;;;5068888;28;20202;-70
2022/03/23 05:03:24;;;;;;;10.55;6.00;;;-1.70;99.90;;;;;;5068812;28;20189;-70
2022/03/23 05:05:50;;;;;;;14.43;5.15;;;-1.80;99.90;;;;;;5068864;28;20239;-70
2022/03/23 05:08:17;;;;;;;25.30;6.13;;;-1.80;99.90;;;;;;5068422;28;20165;-70
2022/03/23 05:10:42;;;;;;;12.02;6.03;;;-1.80;99.90;;;;;;5068492;28;20189;-70
2022/03/23 05:13:08;;;;;;;11.68;6.30;;;-1.80;99.90;;;;;;5068728;28;20185;-70
2022/03/23 05:15:36;;;;;;;12.20;6.00;;;-1.70;99.90;;;;;;5068729;28;20220;-71
2022/03/23 05:18:02;;;;;;;12.55;6.75;;;-1.50;99.90;;;;;;5068744;28;20169;-70
2022/03/23 05:20:27;;;;;;;12.65;6.18;;;-1.50;99.90;;;;;;5068672;28;20180;-70
2022/03/23 05:22:53;;;;;;;16.15;6.70;;;-1.40;99.90;;;;;;5068665;28;20203;-71
2022/03/23 05:25:21;;;;;;;14.73;6.97;;;-1.20;99.90;;;;;;5068674;28;20161;-70
2022/03/23 05:27:47;;;;;;;18.00;6.50;;;-0.90;99.90;;;;;;5068803;28;20163;-70
2022/03/23 05:30:13;;;;;;;14.30;6.28;;;-0.70;99.90;;;;;;5054373;28;20176;-70
2022/03/23 05:32:40;;;;;;;9.75;5.63;;;-0.40;99.90;;;;;;5048325;28;20181;-70
2022/03/23 05:35:08;;;;;;;14.38;6.30;;;-0.10;99.90;;;;;;5048525;28;20169;-70
2022/03/23 05:37:34;;;;;;;12.18;6.03;;;0.60;99.90;;;;;;5048562;28;20223;-70
2022/03/23 05:40:02;;;;;;;18.92;6.15;;;1.30;99.90;;;;;;5050845;28;20598;-71
2022/03/23 05:42:29;;;;;;;21.55;7.13;;;1.70;99.90;;;;;;5058007;28;20203;-70
2022/03/23 05:44:55;;;;;;;26.55;7.07;;;1.80;99.90;;;;;;5056661;28;20275;-71
2022/03/23 05:47:21;;;;;;;16.63;7.53;;;1.90;99.90;;;;;;5056716;28;20259;-70
2022/03/23 05:49:47;;;;;;;18.27;7.43;;;2.80;99.90;;;;;;5055810;28;20173;-70
2022/03/23 05:52:13;;;;;;;12.52;6.72;;;3.30;99.90;;;;;;5048197;28;20161;-70
2022/03/23 05:54:40;;;;;;;16.13;7.45;;;3.20;99.90;;;;;;5048267;28;20166;-70
2022/03/23 05:57:06;;;;;;;30.45;9.27;;;3.40;99.90;;;;;;5047954;28;20197;-70
2022/03/23 05:59:32;;;;;;;22.55;8.65;;;3.20;99.90;;;;;;5048244;28;20244;-70
2022/03/23 06:02:00;;;;;;;24.15;10.27;;;2.80;99.90;;;;;;5047440;28;20299;-70
2022/03/23 06:04:27;;;;;;;13.75;7.95;;;2.40;99.90;;;;;;5067553;28;20704;-70
2022/03/23 06:06:53;;;;;;;15.25;8.25;;;2.00;99.90;;;;;;5067820;28;20181;-70
2022/03/23 06:09:20;;;;;;;12.10;6.85;;;1.70;99.90;;;;;;5073930;28;20179;-70
2022/03/23 06:11:47;;;;;;;19.90;7.68;;;1.70;99.90;;;;;;5086744;28;20270;-70
2022/03/23 06:14:13;;;;;;;14.55;6.78;;;1.80;99.90;;;;;;5061143;28;20279;-70
2022/03/23 06:16:39;;;;;;;17.35;6.15;;;1.90;99.90;;;;;;5053251;28;20338;-69
2022/03/23 06:19:04;;;;;;;19.23;6.85;;;2.00;99.90;;;;;;5046785;28;20161;-69
2022/03/23 06:21:30;;;;;;;10.82;5.65;;;2.10;99.90;;;;;;5051012;28;20165;-71
2022/03/23 06:23:56;;;;;;;11.82;5.50;;;2.20;99.90;;;;;;5051741;28;20497;-70
2022/03/23 06:26:22;;;;;;;10.18;5.93;;;2.30;99.90;;;;;;5051468;28;20204;-71
2022/03/23 06:28:48;;;;;;;13.27;6.35;;;2.50;99.90;;;;;;5050745;28;20162;-71
2022/03/23 06:31:14;;;;;;;13.13;6.18;;;3.00;99.90;;;;;;5039849;28;20197;-71
2022/03/23 06:33:40;;;;;;;12.00;5.85;;;3.50;99.80;;;;;;5068999;28;20212;-72
2022/03/23 06:36:06;;;;;;;13.05;5.45;;;3.60;99.20;;;;;;5053720;28;20187;-72
2022/03/23 06:38:32;;;;;;;13.25;6.03;;;3.60;99.40;;;;;;5069802;28;20204;-72
2022/03/23 06:40:58;;;;;;;15.68;6.20;;;3.60;99.40;;;;;;5069839;28;20205;-73
2022/03/23 06:43:25;;;;;;;10.90;5.63;;;3.70;99.40;;;;;;5067091;28;20212;-71
2022/03/23 06:45:51;;;;;;;14.00;5.60;;;3.90;99.00;;;;;;5068416;28;20188;-71
2022/03/23 06:48:16;;;;;;;19.92;7.03;;;4.10;98.80;;;;;;5071287;28;20180;-71
2022/03/23 06:50:43;;;;;;;9.77;5.82;;;5.80;97.50;;;;;;5071295;28;20218;-72
2022/03/23 06:53:09;;;;;;;11.20;5.90;;;6.20;95.80;;;;;;5070105;28;20696;-71
2022/03/23 06:55:35;;;;;;;14.45;7.05;;;5.80;96.30;;;;;;5067807;28;21897;-71
2022/03/23 06:58:01;;;;;;;11.52;5.90;;;5.60;96.60;;;;;;5068695;28;20235;-71
2022/03/23 07:00:27;;;;;;;13.00;6.82;;;5.60;96.50;;;;;;5071213;28;20199;-71
2022/03/23 07:02:53;;;;;;;11.18;6.35;;;6.50;96.00;;;;;;5071239;28;20193;-72
2022/03/23 07:05:19;;;;;;;12.70;6.78;;;9.50;92.30;;;;;;5070656;28;20186;-71
2022/03/23 07:10:34;;;;;;;13.38;6.55;;;12.80;84.00;;;;;;5071051;28;20164;-70
2022/03/23 07:13:00;;;;;;;11.90;6.40;;;11.80;85.50;;;;;;5070987;28;20164;-70
2022/03/23 07:15:27;;;;;;;15.05;6.47;;;11.40;86.30;;;;;;5070322;28;20169;-69
2022/03/23 07:17:53;;;;;;;13.52;6.45;;;10.10;88.20;;;;;;5070903;28;20192;-70
2022/03/23 07:20:19;;;;;;;12.80;6.63;;;9.80;89.40;;;;;;5071042;28;20176;-70
2022/03/23 07:22:45;;;;;;;9.52;6.13;;;8.90;90.90;;;;;;5070545;28;20196;-69
2022/03/23 07:25:12;;;;;;;10.38;6.28;;;8.80;91.00;;;;;;5070189;28;20221;-69
2022/03/23 07:27:38;;;;;;;11.80;6.53;;;8.50;91.60;;;;;;5070717;28;20546;-70
2022/03/23 07:30:05;;;;;;;11.30;6.45;;;8.70;91.70;;;;;;5070776;28;20157;-70
2022/03/23 07:32:32;;;;;;;15.50;7.00;;;8.90;91.60;;;;;;5069927;28;20168;-69
2022/03/23 07:34:58;;;;;;;15.55;6.53;;;8.80;91.70;;;;;;5071002;28;20161;-71
2022/03/23 07:37:24;;;;;;;14.23;6.72;;;8.50;91.70;;;;;;5070011;28;20192;-71
2022/03/23 07:39:50;;;;;;;13.60;6.07;;;8.80;91.90;;;;;;5070634;28;20161;-71
2022/03/23 07:42:16;;;;;;;9.10;5.88;;;10.00;90.50;;;;;;5070565;28;20168;-71
2022/03/23 07:44:42;;;;;;;11.13;5.40;;;10.70;89.00;;;;;;5070555;28;20196;-71
2022/03/23 07:47:11;;;;;;;11.10;6.00;;;11.20;87.20;;;;;;5069827;28;20164;-71
2022/03/23 07:49:38;;;;;;;8.63;5.22;;;12.60;84.60;;;;;;5070600;28;20185;-72
2022/03/23 07:52:04;;;;;;;10.43;5.65;;;13.90;81.60;;;;;;5070298;28;20153;-72
2022/03/23 07:54:31;;;;;;;13.02;6.13;;;14.70;80.10;;;;;;5069058;28;20172;-72
2022/03/23 07:56:57;;;;;;;8.57;5.53;;;15.80;78.30;;;;;;5049578;28;20212;-72
2022/03/23 07:59:23;;;;;;;10.50;5.60;;;16.00;76.20;;;;;;5070102;28;20270;-73
2022/03/23 08:01:49;;;;;;;13.10;5.40;;;16.70;74.70;;;;;;5068485;28;20188;-73
2022/03/23 08:04:15;;;;;;;10.95;5.03;;;17.80;72.30;;;;;;5070096;28;20192;-73
2022/03/23 08:06:41;;;;;;;10.48;6.05;;;18.10;71.40;;;;;;5069998;28;20219;-73
2022/03/23 08:09:07;;;;;;;13.77;5.88;;;18.30;71.80;;;;;;5069391;28;20165;-72
2022/03/23 08:11:33;;;;;;;11.43;5.85;;;18.60;70.80;;;;;;5068278;28;20265;-72
2022/03/23 08:13:59;;;;;;;12.40;6.22;;;19.70;70.50;;;;;;5070039;28;20149;-72
2022/03/23 08:16:25;;;;;;;8.35;5.68;;;21.20;68.30;;;;;;5069769;28;20156;-71
2022/03/23 08:18:52;;;;;;;9.88;6.25;;;20.80;67.60;;;;;;5069310;28;20161;-72
2022/03/23 08:21:20;;;;;;;8.55;5.35;;;20.40;67.50;;;;;;5069600;28;20188;-72
2022/03/23 08:23:47;;;;;;;11.68;5.82;;;21.20;66.40;;;;;;5069709;28;20180;-72
2022/03/23 08:26:14;;;;;;;14.98;6.00;;;20.70;67.00;;;;;;5069328;28;20188;-71
2022/03/23 08:28:45;;;;;;;13.27;6.28;;;20.00;69.30;;;;;;5068884;28;20161;-71
2022/03/23 08:31:12;;;;;;;12.80;5.22;;;20.20;67.30;;;;;;5067713;28;20296;-72
2022/03/23 08:33:38;;;;;;;10.98;5.50;;;20.80;68.60;;;;;;5069591;28;20708;-71
2022/03/23 08:36:06;;;;;;;10.07;5.38;;;21.50;67.30;;;;;;5067813;28;20153;-71
2022/03/23 08:38:32;;;;;;;10.45;5.85;;;22.60;63.90;;;;;;5067276;28;20169;-72
2022/03/23 08:40:58;;;;;;;16.75;6.30;;;21.90;65.50;;;;;;5067581;28;20212;-71
2022/03/23 08:43:24;;;;;;;11.68;5.82;;;22.30;65.60;;;;;;5069285;28;20183;-72
2022/03/23 08:45:51;;;;;;;12.90;6.15;;;22.40;65.10;;;;;;5069294;28;20163;-72
2022/03/23 08:48:19;;;;;;;11.90;6.20;;;21.60;65.50;;;;;;5068353;28;20560;-72
2022/03/23 08:50:50;;;;;;;11.85;6.07;;;21.20;65.90;;;;;;5068533;28;20171;-72
2022/03/23 08:53:17;;;;;;;8.63;6.30;;;22.00;64.40;;;;;;5069286;28;20249;-72
2022/03/23 08:55:43;;;;;;;13.43;5.70;;;21.10;64.80;;;;;;5069309;28;20196;-71
2022/03/23 08:58:10;;;;;;;7.75;5.57;;;21.10;67.60;;;;;;5067826;28;20212;-71
2022/03/23 09:00:37;;;;;;;12.65;6.68;;;22.20;65.50;;;;;;5067989;28;20180;-72
2022/03/23 09:03:03;;;;;;;13.90;7.10;;;23.10;63.30;;;;;;5049258;28;20172;-71
2022/03/23 09:05:30;;;;;;;9.35;5.95;;;23.60;63.20;;;;;;5065196;28;20200;-71
2022/03/23 09:07:56;;;;;;;11.55;6.65;;;23.70;63.10;;;;;;5069177;28;20171;-72
2022/03/23 09:10:23;;;;;;;12.65;5.72;;;24.30;62.30;;;;;;5068312;28;20164;-72
2022/03/23 09:12:49;;;;;;;9.85;5.97;;;24.00;62.00;;;;;;5068994;28;20555;-71
2022/03/23 09:15:17;;;;;;;9.60;6.00;;;22.70;62.80;;;;;;5067791;28;20282;-72
2022/03/23 09:17:44;;;;;;;10.95;5.68;;;22.90;61.60;;;;;;5068689;28;20161;-72
2022/03/23 09:20:11;;;;;;;10.68;6.22;;;22.40;63.70;;;;;;5068685;28;20152;-72
2022/03/23 09:22:41;;;;;;;8.07;5.35;;;22.70;63.90;;;;;;5048266;28;20184;-72
2022/03/23 09:25:10;;;;;;;8.73;4.75;;;22.70;62.10;;;;;;5048758;28;20185;-71
2022/03/23 09:27:39;;;;;;;11.13;5.32;;;23.40;61.90;;;;;;5031418;28;20245;-72
2022/03/23 09:30:07;;;;;;;12.15;5.32;;;23.60;61.30;;;;;;5048407;28;20154;-71
2022/03/23 09:32:33;;;;;;;12.73;5.70;;;23.10;61.30;;;;;;5063897;28;20268;-72
2022/03/23 09:35:00;;;;;;;10.30;5.43;;;23.30;60.70;;;;;;5068442;28;20160;-71
2022/03/23 09:40:12;;;;;;;8.52;5.15;;;22.80;61.80;;;;;;5068797;28;20234;-71
2022/03/23 09:42:40;;;;;;;15.20;5.95;;;23.00;59.90;;;;;;5067879;28;20184;-71
2022/03/23 09:45:06;;;;;;;7.82;5.22;;;23.30;62.00;;;;;;5068699;28;20321;-72
2022/03/23 09:47:32;;;;;;;6.95;4.78;;;23.60;58.80;;;;;;5068625;28;20172;-71
2022/03/23 09:49:58;;;;;;;8.23;3.95;;;22.90;60.30;;;;;;5067284;28;20207;-71
2022/03/23 09:52:25;;;;;;;8.60;5.05;;;22.40;60.00;;;;;;5067995;28;20628;-73
2022/03/23 09:54:51;;;;;;;11.88;5.40;;;23.10;61.10;;;;;;5069057;28;20160;-72
2022/03/23 09:57:16;;;;;;;6.18;3.88;;;23.40;59.70;;;;;;5072585;28;20167;-72
2022/03/23 09:59:42;;;;;;;7.97;3.65;;;23.90;59.10;;;;;;5072082;28;20223;-72
2022/03/23 10:02:08;;;;;;;3.85;3.40;;;23.70;57.00;;;;;;5072073;28;20152;-72
2022/03/23 10:04:43;;;;;;;4.10;2.45;;;22.90;58.50;;;;;;5071976;28;20506;-73
2022/03/23 10:07:41;;;;;;;5.57;2.60;;;22.50;55.50;;;;;;5072249;28;20175;-72
2022/03/23 10:10:44;;;;;;;6.00;3.80;;;23.60;56.30;;;;;;5054241;28;20210;-72
2022/03/23 10:13:40;;;;;;;6.28;3.13;;;24.40;56.10;;;;;;5071559;28;20188;-72
2022/03/23 10:16:48;;;;;;;3.85;3.28;;;24.00;56.80;;;;;;5072091;28;20164;-72
2022/03/23 10:19:14;;;;;;;5.15;3.03;;;24.60;57.70;;;;;;5072213;28;20195;-72
2022/03/23 10:21:40;;;;;;;6.55;3.60;;;24.70;55.90;;;;;;5072170;28;20160;-72
2022/03/23 10:24:06;;;;;;;7.88;3.95;;;24.50;55.20;;;;;;5071420;28;20152;-72
2022/03/23 10:26:38;;;;;;;6.60;3.50;;;24.20;58.60;;;;;;5072119;28;20247;-72
2022/03/23 10:29:11;;;;;;;6.53;3.60;;;23.80;56.20;;;;;;5071580;28;20200;-72
2022/03/23 10:31:37;;;;;;;4.88;3.28;;;23.20;56.70;;;;;;5071613;28;20160;-72
2022/03/23 10:34:08;;;;;;;10.43;3.45;;;23.40;55.80;;;;;;5071079;28;20188;-72
2022/03/23 10:36:57;;;;;;;4.22;3.10;;;22.40;55.90;;;;;;5071874;28;20168;-72
2022/03/23 10:39:31;;;;;;;5.07;3.08;;;22.10;56.30;;;;;;5070714;28;20255;-72
2022/03/23 10:41:59;;;;;;;5.18;3.20;;;22.90;55.60;;;;;;5058614;28;20180;-72
2022/03/23 10:44:26;;;;;;;7.93;3.53;;;22.40;57.10;;;;;;5071065;28;20224;-71
2022/03/23 10:46:56;;;;;;;5.28;3.15;;;21.90;57.10;;;;;;5071560;28;20153;-72
2022/03/23 10:49:35;;;;;;;7.05;3.17;;;22.20;57.00;;;;;;5071361;28;20207;-72
2022/03/23 10:52:16;;;;;;;5.05;3.05;;;23.10;54.50;;;;;;5071523;28;20160;-72
2022/03/23 10:55:04;;;;;;;4.57;2.83;;;22.50;53.30;;;;;;5071134;28;20387;-72
2022/03/23 10:57:56;;;;;;;9.75;3.40;;;22.20;50.70;;;;;;5071240;28;20622;-72
2022/03/23 11:00:34;;;;;;;5.57;3.70;;;22.20;53.10;;;;;;5071386;28;20703;-72
2022/03/23 11:03:01;;;;;;;5.65;3.88;;;23.20;56.00;;;;;;5071503;28;20167;-73
2022/03/23 11:05:42;;;;;;;7.95;4.13;;;23.40;54.50;;;;;;5051546;28;20195;-72
2022/03/23 11:08:11;;;;;;;6.60;3.40;;;23.10;57.00;;;;;;5069405;28;20172;-73
2022/03/23 11:16:23;;;;;;;8.63;3.10;;;24.00;55.00;;;;;;5070400;28;20792;-73
2022/03/23 11:18:48;;;;;;;4.38;3.00;;;24.00;52.10;;;;;;5071136;28;20250;-72
2022/03/23 11:21:14;;;;;;;6.43;3.58;;;24.00;55.00;;;;;;5071068;28;20168;-73
2022/03/23 11:23:40;;;;;;;4.03;3.10;;;24.70;55.80;;;;;;5070952;28;20168;-71
2022/03/23 11:26:08;;;;;;;5.53;3.47;;;24.50;52.20;;;;;;5070249;28;20204;-71
2022/03/23 11:28:43;;;;;;;4.38;2.75;;;24.20;53.20;;;;;;5070958;28;20160;-73
2022/03/23 11:31:12;;;;;;;4.60;2.78;;;23.90;50.60;;;;;;5070960;28;20152;-73
2022/03/23 11:33:39;;;;;;;8.05;3.28;;;23.80;51.30;;;;;;5070828;28;20255;-73
2022/03/23 11:36:09;;;;;;;4.78;3.10;;;24.40;51.30;;;;;;5070642;28;20195;-73
2022/03/23 11:38:37;;;;;;;4.25;3.13;;;24.50;53.70;;;;;;5070332;28;20294;-73
2022/03/23 11:41:05;;;;;;;4.80;2.78;;;24.60;51.60;;;;;;5070666;28;20708;-73
2022/03/23 11:43:37;;;;;;;4.75;3.00;;;23.30;51.00;;;;;;5070743;28;20162;-72
2022/03/23 11:46:04;;;;;;;6.13;3.10;;;23.90;51.30;;;;;;5070111;28;20205;-73
2022/03/23 11:49:10;;;;;;;4.13;2.90;;;23.90;50.10;;;;;;5062870;28;20204;-72
2022/03/23 11:51:57;;;;;;;3.63;2.60;;;23.50;50.10;;;;;;5046461;28;20250;-73
2022/03/23 11:55:36;;;;;;;4.70;2.95;;;23.60;52.40;;;;;;5050068;28;20200;-73
2022/03/23 11:57:15;;;;;;;2.70;2.40;;;23.60;49.70;;;;;;5049695;28;20177;-72
2022/03/23 11:59:43;;;;;;;7.80;2.78;;;23.60;53.20;;;;;;5056540;28;20207;-74
2022/03/23 12:02:09;;;;;;;4.40;2.80;;;23.90;48.60;;;;;;5072148;28;20171;-73
2022/03/23 12:04:35;;;;;;;3.47;2.10;;;24.20;47.60;;;;;;5086288;28;20159;-73
2022/03/23 12:07:09;;;;;;;6.18;2.50;;;24.60;48.20;;;;;;5067696;28;20283;-72
2022/03/23 12:09:37;;;;;;;5.25;2.83;;;24.60;49.60;;;;;;5058872;28;20278;-72
2022/03/23 12:12:27;;;;;;;5.65;2.40;;;25.30;46.60;;;;;;5063345;28;20210;-73
2022/03/23 12:15:19;;;;;;;6.60;2.38;;;25.10;46.30;;;;;;5069701;28;20609;-72
2022/03/23 12:17:54;;;;;;;4.20;2.45;;;25.00;47.20;;;;;;5069441;28;20226;-73
2022/03/23 12:20:46;;;;;;;5.43;2.83;;;25.10;49.10;;;;;;5068540;28;20218;-73
2022/03/23 12:23:15;;;;;;;6.40;2.90;;;24.30;48.10;;;;;;5069426;28;20176;-73
2022/03/23 12:26:03;;;;;;;4.53;2.70;;;24.30;48.30;;;;;;5069884;28;20160;-72
2022/03/23 12:28:45;;;;;;;3.80;2.08;;;24.10;48.40;;;;;;5069139;28;20152;-73
2022/03/23 12:31:14;;;;;;;4.80;2.38;;;22.80;49.70;;;;;;5033527;28;20216;-73
2022/03/23 12:34:06;;;;;;;10.30;2.70;;;21.50;52.70;;;;;;5051352;28;20196;-73
2022/03/23 12:37:01;;;;;;;5.47;2.83;;;20.50;54.10;;;;;;5069384;28;20176;-74
2022/03/23 12:39:46;;;;;;;6.10;2.38;;;20.40;55.20;;;;;;5068580;28;20200;-72
2022/03/23 12:42:12;;;;;;;3.45;2.45;;;20.20;54.10;;;;;;5065298;28;20196;-73
2022/03/23 12:44:41;;;;;;;6.57;2.42;;;19.90;57.20;;;;;;5062700;28;20608;-73
2022/03/23 12:47:11;;;;;;;3.08;2.25;;;19.80;55.80;;;;;;5069322;28;20157;-73
2022/03/23 12:58:27;;;;;;;8.88;2.55;;;19.30;57.20;;;;;;5068970;28;20755;-72
2022/03/23 13:00:55;;;;;;;4.22;2.13;;;19.50;57.50;;;;;;5068332;28;20179;-71
2022/03/23 13:03:22;;;;;;;4.63;2.33;;;19.10;55.50;;;;;;5068825;28;20677;-72
2022/03/23 13:05:59;;;;;;;4.80;2.40;;;19.00;55.30;;;;;;5069158;28;20172;-73
2022/03/23 13:08:33;;;;;;;5.80;2.50;;;19.10;55.80;;;;;;5069051;28;20160;-72
2022/03/23 13:11:04;;;;;;;7.35;2.33;;;19.20;56.70;;;;;;5068256;28;20149;-73
2022/03/23 13:13:33;;;;;;;7.43;2.80;;;19.30;55.60;;;;;;5068738;28;20204;-71
2022/03/23 13:16:13;;;;;;;7.82;2.53;;;19.30;55.90;;;;;;5066313;28;20260;-72
2022/03/23 13:18:40;;;;;;;5.53;2.53;;;19.30;55.60;;;;;;5068946;28;20163;-72
2022/03/23 13:21:17;;;;;;;6.25;2.47;;;19.20;54.60;;;;;;5068481;28;20164;-72
2022/03/23 13:23:46;;;;;;;4.40;2.95;;;18.90;52.80;;;;;;5068606;28;20187;-72
2022/03/23 13:26:17;;;;;;;2.40;1.95;;;18.80;54.70;;;;;;5068439;28;20645;-72
2022/03/23 13:28:50;;;;;;;3.38;1.70;;;18.90;52.10;;;;;;5068513;28;20222;-72
2022/03/23 13:31:22;;;;;;;2.90;1.92;;;18.80;51.30;;;;;;5067987;28;20152;-75
2022/03/23 13:33:50;;;;;;;4.90;2.15;;;18.90;52.00;;;;;;5067789;28;20218;-74
2022/03/23 13:36:19;;;;;;;4.30;2.30;;;18.90;54.40;;;;;;5065996;28;20180;-75
2022/03/23 13:38:51;;;;;;;5.28;1.98;;;18.80;53.60;;;;;;5068581;28;20161;-75
2022/03/23 13:44:08;;;;;;;4.93;2.33;;;19.10;52.30;;;;;;5068097;28;20204;-72
2022/03/23 13:46:34;;;;;;;3.17;2.15;;;19.20;51.50;;;;;;5050877;28;20153;-72
2022/03/23 13:49:09;;;;;;;4.18;1.98;;;19.20;52.50;;;;;;5068420;28;20172;-71